createdAt,value
2023-07-12T00:00:24.235Z,6.70
2023-07-12T00:02:51.082Z,6.40
2023-07-12T00:05:18.451Z,6.63
2023-07-12T00:07:48.563Z,7.30
2023-07-12T00:10:19.604Z,7.10
2023-07-12T00:12:46.182Z,6.60
2023-07-12T00:15:16.155Z,6.93
2023-07-12T00:17:42.755Z,7.03
2023-07-12T00:20:16.705Z,6.95
2023-07-12T00:22:43.346Z,6.38
2023-07-12T00:25:09.882Z,6.65
2023-07-12T00:27:36.475Z,7.28
2023-07-12T00:30:09.846Z,7.43
2023-07-12T00:32:36.465Z,7.30
2023-07-12T00:35:03.180Z,6.70
2023-07-12T00:37:29.859Z,6.93
2023-07-12T00:39:56.513Z,7.40
2023-07-12T00:42:27.229Z,7.28
2023-07-12T00:44:56.380Z,7.40
2023-07-12T00:47:23.129Z,6.82
2023-07-12T00:49:49.822Z,7.35
2023-07-12T00:52:18.128Z,7.18
2023-07-12T00:54:55.277Z,7.15
2023-07-12T00:57:22.812Z,6.80
2023-07-12T00:59:50.067Z,7.10
2023-07-12T01:02:16.923Z,7.30
2023-07-12T01:04:45.822Z,7.03
2023-07-12T01:07:13.936Z,6.97
2023-07-12T01:09:40.873Z,7.15
2023-07-12T01:12:07.611Z,7.38
2023-07-12T01:14:34.226Z,7.20
2023-07-12T01:17:05.967Z,7.40
2023-07-12T01:19:33.085Z,6.88
2023-07-12T01:21:59.780Z,6.80
2023-07-12T01:24:27.165Z,7.28
2023-07-12T01:26:59.317Z,5.30
2023-07-12T01:29:28.260Z,7.10
2023-07-12T01:31:54.989Z,7.85
2023-07-12T01:34:23.366Z,7.35
2023-07-12T01:36:50.004Z,7.63
2023-07-12T01:39:16.565Z,6.93
2023-07-12T01:41:43.215Z,7.03
2023-07-12T01:44:09.804Z,7.25
2023-07-12T01:46:36.402Z,7.00
2023-07-12T01:49:03.203Z,6.68
2023-07-12T01:51:30.317Z,7.18
2023-07-12T01:53:57.049Z,6.80
2023-07-12T01:56:23.666Z,6.88
2023-07-12T01:58:50.274Z,6.65
2023-07-12T02:01:17.021Z,6.03
2023-07-12T02:03:43.775Z,6.43
2023-07-12T02:06:10.503Z,5.70
2023-07-12T02:08:37.237Z,5.32
2023-07-12T02:11:03.832Z,4.75
2023-07-12T02:13:30.473Z,5.82
2023-07-12T02:15:57.209Z,4.90
2023-07-12T02:18:23.928Z,4.25
2023-07-12T02:20:50.537Z,4.00
2023-07-12T02:23:17.181Z,2.72
2023-07-12T02:25:43.743Z,3.42
2023-07-12T02:28:10.612Z,3.38
2023-07-12T02:30:37.947Z,3.35
2023-07-12T02:33:04.745Z,3.28
2023-07-12T02:35:32.832Z,3.35
2023-07-12T02:38:00.355Z,4.40
2023-07-12T02:40:27.489Z,3.40
2023-07-12T02:42:54.318Z,3.05
2023-07-12T02:45:21.401Z,2.70
2023-07-12T02:47:48.076Z,2.50
2023-07-12T02:50:14.816Z,2.47
2023-07-12T02:52:41.586Z,2.72
2023-07-12T02:55:08.435Z,2.95
2023-07-12T02:57:35.033Z,2.40
2023-07-12T03:00:04.095Z,2.28
2023-07-12T03:02:31.692Z,2.40
2023-07-12T03:04:58.448Z,2.70
2023-07-12T03:07:25.198Z,2.10
2023-07-12T03:09:56.538Z,2.13
2023-07-12T03:12:23.147Z,1.77
2023-07-12T03:14:49.796Z,2.10
2023-07-12T03:17:16.433Z,2.15
2023-07-12T03:19:43.221Z,1.67
2023-07-12T03:22:10.434Z,2.17
2023-07-12T03:24:37.059Z,1.67
2023-07-12T03:27:03.826Z,1.58
2023-07-12T03:29:30.422Z,1.67
2023-07-12T03:31:57.009Z,1.60
2023-07-12T03:34:23.616Z,1.90
2023-07-12T03:36:50.211Z,1.70
2023-07-12T03:39:16.939Z,1.20
2023-07-12T03:41:43.586Z,2.15
2023-07-12T03:44:10.457Z,2.03
2023-07-12T03:46:37.112Z,1.85
2023-07-12T03:49:03.841Z,1.77
2023-07-12T03:51:31.185Z,1.83
2023-07-12T03:53:57.860Z,2.03
2023-07-12T03:56:24.384Z,1.63
2023-07-12T03:58:51.047Z,1.50
2023-07-12T04:01:19.362Z,1.60
2023-07-12T04:03:46.179Z,1.60
2023-07-12T04:06:14.178Z,1.40
2023-07-12T04:08:41.310Z,1.75
2023-07-12T04:11:08.624Z,1.42
2023-07-12T04:13:35.484Z,1.42
2023-07-12T04:16:02.760Z,1.52
2023-07-12T04:18:30.158Z,1.40
2023-07-12T04:21:00.258Z,1.40
2023-07-12T04:23:27.316Z,1.30
2023-07-12T04:26:03.797Z,1.30
2023-07-12T04:28:31.349Z,1.40
2023-07-12T04:31:02.418Z,1.67
2023-07-12T04:33:29.134Z,1.10
2023-07-12T04:35:55.824Z,1.50
2023-07-12T04:38:22.385Z,1.48
2023-07-12T04:40:58.258Z,1.20
2023-07-12T04:43:24.889Z,1.38
2023-07-12T04:45:51.623Z,1.40
2023-07-12T04:48:18.231Z,1.33
2023-07-12T04:50:45.133Z,1.42
2023-07-12T04:53:13.684Z,1.40
2023-07-12T04:55:40.531Z,1.77
2023-07-12T04:58:08.361Z,1.40
2023-07-12T05:00:35.065Z,1.42
2023-07-12T05:03:02.187Z,1.20
2023-07-12T05:05:29.045Z,1.35
2023-07-12T05:07:55.805Z,1.40
2023-07-12T05:10:22.491Z,1.40
2023-07-12T05:12:49.623Z,1.55
2023-07-12T05:15:18.133Z,1.70
2023-07-12T05:17:45.155Z,1.42
2023-07-12T05:20:14.036Z,1.50
2023-07-12T05:22:40.850Z,1.65
2023-07-12T05:25:07.663Z,1.70
2023-07-12T05:27:34.526Z,1.70
2023-07-12T05:30:01.714Z,1.80
2023-07-12T05:32:31.567Z,1.60
2023-07-12T05:34:58.177Z,1.73
2023-07-12T05:37:29.674Z,1.80
2023-07-12T05:39:57.704Z,1.73
2023-07-12T05:42:24.372Z,1.83
2023-07-12T05:44:51.045Z,1.50
2023-07-12T05:47:17.720Z,1.95
2023-07-12T05:49:44.274Z,1.85
2023-07-12T05:52:10.976Z,1.83
2023-07-12T05:54:37.661Z,1.98
2023-07-12T05:57:04.417Z,1.65
2023-07-12T05:59:31.158Z,1.35
2023-07-12T06:01:57.775Z,1.88
2023-07-12T06:04:24.611Z,1.80
2023-07-12T06:06:51.956Z,1.70
2023-07-12T06:09:19.031Z,1.65
2023-07-12T06:11:45.697Z,1.75
2023-07-12T06:14:12.297Z,1.60
2023-07-12T06:16:39.540Z,1.60
2023-07-12T06:19:06.305Z,1.75
2023-07-12T06:21:32.981Z,1.50
2023-07-12T06:24:00.936Z,1.80
2023-07-12T06:26:27.987Z,1.73
2023-07-12T06:28:54.954Z,1.67
2023-07-12T06:31:21.982Z,1.92
2023-07-12T06:33:48.736Z,2.03
2023-07-12T06:36:15.388Z,1.50
2023-07-12T06:38:42.145Z,2.13
2023-07-12T06:41:08.928Z,2.03
2023-07-12T06:43:35.811Z,1.80
2023-07-12T06:46:02.539Z,1.90
2023-07-12T06:48:29.481Z,1.90
2023-07-12T06:50:56.482Z,1.60
2023-07-12T06:53:23.210Z,1.80
2023-07-12T06:55:49.867Z,1.73
2023-07-12T06:58:16.523Z,1.60
2023-07-12T07:00:43.533Z,1.77
2023-07-12T07:03:11.156Z,1.75
2023-07-12T07:05:40.278Z,2.10
2023-07-12T07:08:07.413Z,1.92
2023-07-12T07:10:34.388Z,1.90
2023-07-12T07:13:01.575Z,1.75
2023-07-12T07:15:28.178Z,1.88
2023-07-12T07:17:54.910Z,2.05
2023-07-12T07:20:22.212Z,2.00
2023-07-12T07:22:48.905Z,1.85
2023-07-12T07:25:17.707Z,2.08
2023-07-12T07:27:48.725Z,1.67
2023-07-12T07:30:15.814Z,2.10
2023-07-12T07:32:42.493Z,1.90
2023-07-12T07:35:09.887Z,1.77
2023-07-12T07:37:37.253Z,1.67
2023-07-12T07:40:04.676Z,1.83
2023-07-12T07:42:31.651Z,2.00
2023-07-12T07:44:58.240Z,2.10
2023-07-12T07:47:24.936Z,1.95
2023-07-12T07:49:51.668Z,1.60
2023-07-12T07:52:18.279Z,1.70
2023-07-12T07:54:45.127Z,2.10
2023-07-12T07:57:11.774Z,2.00
2023-07-12T07:59:38.482Z,2.22
2023-07-12T08:02:05.197Z,2.25
2023-07-12T08:04:32.388Z,1.95
2023-07-12T08:06:59.177Z,2.67
2023-07-12T08:09:25.837Z,2.60
2023-07-12T08:11:52.457Z,2.13
2023-07-12T08:14:22.024Z,1.90
2023-07-12T08:16:49.887Z,2.00
2023-07-12T08:19:18.627Z,2.38
2023-07-12T08:21:45.905Z,2.25
2023-07-12T08:24:13.066Z,1.90
2023-07-12T08:26:43.604Z,2.20
2023-07-12T08:29:12.803Z,1.83
2023-07-12T08:31:39.420Z,2.17
2023-07-12T08:34:06.044Z,2.35
2023-07-12T08:36:32.806Z,2.55
2023-07-12T08:38:59.409Z,2.38
2023-07-12T08:41:27.588Z,2.38
2023-07-12T08:43:54.399Z,2.10
2023-07-12T08:46:23.006Z,1.90
2023-07-12T08:48:54.240Z,2.00
2023-07-12T08:51:25.593Z,1.83
2023-07-12T08:53:52.640Z,2.03
2023-07-12T08:56:20.765Z,1.90
2023-07-12T08:58:48.768Z,1.98
2023-07-12T09:01:21.622Z,1.92
2023-07-12T09:03:48.571Z,2.00
2023-07-12T09:06:16.379Z,2.30
2023-07-12T09:08:45.350Z,2.03
2023-07-12T09:11:16.239Z,2.28
2023-07-12T09:13:42.881Z,2.20
2023-07-12T09:16:23.479Z,2.03
2023-07-12T09:18:52.159Z,1.60
2023-07-12T09:21:23.950Z,2.33
2023-07-12T09:23:52.360Z,2.30
2023-07-12T09:26:23.716Z,2.15
2023-07-12T09:28:51.113Z,2.10
2023-07-12T09:31:21.634Z,1.92
2023-07-12T09:33:50.795Z,1.48
2023-07-12T09:36:18.566Z,2.20
2023-07-12T09:38:45.311Z,2.20
2023-07-12T09:41:16.643Z,2.00
2023-07-12T09:43:46.653Z,2.15
2023-07-12T09:46:28.699Z,2.17
2023-07-12T09:49:01.662Z,2.00
2023-07-12T09:51:30.626Z,2.00
2023-07-12T09:54:01.144Z,2.20
2023-07-12T09:56:40.895Z,1.77
2023-07-12T09:59:33.602Z,1.90
2023-07-12T10:02:23.609Z,2.10
2023-07-12T10:05:25.739Z,2.00
2023-07-12T10:07:54.623Z,2.08
2023-07-12T10:10:23.881Z,1.75
2023-07-12T10:12:54.289Z,1.52
2023-07-12T10:15:20.941Z,2.03
2023-07-12T10:17:47.644Z,1.50
2023-07-12T10:20:17.338Z,1.75
2023-07-12T10:22:44.694Z,2.33
2023-07-12T10:25:25.520Z,1.70
2023-07-12T10:27:56.680Z,2.03
2023-07-12T10:30:25.646Z,1.75
2023-07-12T10:32:59.703Z,1.67
2023-07-12T10:35:44.680Z,1.77
2023-07-12T10:38:15.732Z,1.60
2023-07-12T10:40:46.485Z,2.10
2023-07-12T10:43:16.276Z,1.90
2023-07-12T10:45:42.958Z,1.58
2023-07-12T10:48:11.109Z,1.65
2023-07-12T10:50:37.877Z,1.60
2023-07-12T10:53:34.732Z,1.67
2023-07-12T10:56:07.232Z,1.60
2023-07-12T10:58:47.793Z,1.40
2023-07-12T11:01:33.135Z,1.67
2023-07-12T11:04:06.654Z,1.52
2023-07-12T11:06:34.107Z,1.52
2023-07-12T11:09:00.678Z,1.42
2023-07-12T11:11:34.361Z,1.85
2023-07-12T11:14:11.735Z,1.48
2023-07-12T11:16:45.062Z,1.50
2023-07-12T11:19:31.149Z,1.38
2023-07-12T11:22:02.578Z,1.60
2023-07-12T11:24:40.182Z,1.70
2023-07-12T11:27:10.496Z,1.80
2023-07-12T11:29:46.392Z,1.38
2023-07-12T11:32:24.781Z,1.50
2023-07-12T11:34:56.800Z,1.60
2023-07-12T11:37:35.923Z,1.75
2023-07-12T11:40:02.559Z,1.58
2023-07-12T11:42:30.148Z,1.85
2023-07-12T11:45:07.819Z,1.55
2023-07-12T11:47:35.244Z,1.33
2023-07-12T11:50:02.589Z,1.80
2023-07-12T11:52:29.273Z,1.80
2023-07-12T11:54:55.979Z,2.05
2023-07-12T11:57:22.671Z,1.70
2023-07-12T11:59:51.301Z,1.70
2023-07-12T12:02:19.741Z,1.95
2023-07-12T12:04:50.412Z,1.85
2023-07-12T12:07:20.278Z,1.90
2023-07-12T12:09:47.827Z,1.70
2023-07-12T12:12:17.398Z,1.90
2023-07-12T12:14:44.640Z,1.67
2023-07-12T12:17:16.973Z,1.90
2023-07-12T12:22:17.626Z,1.98
2023-07-12T12:24:48.560Z,1.60
2023-07-12T12:27:21.273Z,2.05
2023-07-12T12:29:48.468Z,1.80
2023-07-12T12:32:17.940Z,1.40
2023-07-12T12:34:49.076Z,2.03
2023-07-12T12:37:17.965Z,1.90
2023-07-12T12:39:56.028Z,1.90
2023-07-12T12:42:23.763Z,1.88
2023-07-12T12:44:52.647Z,2.05
2023-07-12T12:47:21.264Z,2.25
2023-07-12T12:55:03.082Z,2.65
2023-07-12T13:09:04.452Z,2.15
2023-07-12T13:15:51.915Z,1.90
2023-07-12T13:18:43.268Z,2.10
2023-07-12T13:21:00.744Z,1.95
2023-07-12T13:26:00.140Z,2.40
2023-07-12T13:28:26.774Z,2.03
2023-07-12T13:30:53.418Z,2.20
2023-07-12T13:33:21.552Z,2.40
2023-07-12T13:42:42.200Z,1.98
2023-07-12T13:46:11.204Z,2.55
2023-07-12T13:48:38.392Z,2.50
2023-07-12T18:55:28.378Z,3.03
2023-07-12T18:57:56.514Z,2.50
2023-07-12T19:00:23.582Z,2.35
2023-07-12T19:02:50.456Z,2.22
2023-07-12T19:05:21.557Z,2.60
2023-07-12T19:07:48.427Z,2.05
2023-07-12T19:10:15.781Z,2.08
2023-07-12T19:12:42.658Z,2.20
2023-07-12T19:15:28.220Z,2.13
2023-07-12T19:17:55.231Z,1.70
2023-07-12T19:20:28.436Z,2.35
2023-07-12T19:22:56.340Z,2.30
2023-07-12T19:25:24.332Z,1.95
2023-07-12T19:27:51.309Z,2.25
2023-07-12T19:30:20.237Z,2.55
2023-07-12T19:32:46.943Z,2.58
2023-07-12T19:35:16.883Z,2.30
2023-07-12T19:37:46.008Z,2.40
2023-07-12T19:40:13.558Z,2.55
2023-07-12T19:42:40.146Z,2.40
2023-07-12T19:45:08.044Z,2.58
2023-07-12T19:47:34.710Z,2.28
2023-07-12T19:50:01.564Z,2.53
2023-07-12T19:52:30.327Z,2.03
2023-07-12T19:54:56.968Z,1.95
2023-07-12T19:57:24.502Z,2.22
2023-07-12T19:59:51.157Z,2.53
2023-07-12T20:02:19.669Z,2.10
2023-07-12T20:04:46.518Z,2.08
2023-07-12T20:07:14.152Z,1.98
2023-07-12T20:09:41.859Z,2.47
2023-07-12T20:12:08.858Z,2.35
2023-07-12T20:14:36.345Z,2.40
2023-07-12T20:17:05.120Z,2.10
2023-07-12T20:19:31.817Z,2.00
2023-07-12T20:21:59.061Z,2.75
2023-07-12T20:24:26.469Z,3.17
2023-07-12T20:26:53.497Z,2.33
2023-07-12T20:29:20.690Z,2.20
2023-07-12T20:31:48.203Z,2.53
2023-07-12T20:34:14.807Z,2.70
2023-07-12T20:36:44.000Z,2.10
2023-07-12T20:39:10.695Z,2.33
2023-07-12T20:41:37.533Z,1.70
2023-07-12T20:44:04.356Z,1.50
2023-07-12T20:46:35.613Z,1.13
2023-07-12T20:49:04.292Z,1.48
2023-07-12T20:51:30.907Z,1.27
2023-07-12T20:53:57.805Z,1.17
2023-07-12T20:56:25.558Z,1.27
2023-07-12T20:58:52.640Z,1.10
2023-07-12T21:01:20.703Z,1.15
2023-07-12T21:03:47.941Z,1.25
2023-07-12T21:06:20.058Z,1.60
2023-07-12T21:08:47.697Z,1.23
2023-07-12T21:11:14.984Z,1.48
2023-07-12T21:13:41.846Z,1.35
2023-07-12T21:16:11.027Z,1.52
2023-07-12T21:18:37.947Z,1.67
2023-07-12T21:21:04.853Z,1.30
2023-07-12T21:23:31.535Z,1.42
2023-07-12T21:25:59.182Z,1.30
2023-07-12T21:28:26.176Z,1.60
2023-07-12T21:30:52.796Z,1.70
2023-07-12T21:33:20.057Z,1.20
2023-07-12T21:35:48.630Z,1.70
2023-07-12T21:38:15.669Z,1.33
2023-07-12T21:40:42.874Z,1.42
2023-07-12T21:43:10.173Z,1.30
2023-07-12T21:45:37.632Z,1.50
2023-07-12T21:48:05.026Z,1.58
2023-07-12T21:50:31.741Z,1.30
2023-07-12T21:52:58.345Z,1.52
2023-07-12T21:55:24.935Z,1.63
2023-07-12T21:57:51.552Z,1.60
2023-07-12T22:00:21.756Z,1.30
2023-07-12T22:02:49.356Z,1.52
2023-07-12T22:05:16.753Z,1.35
2023-07-12T22:07:43.926Z,1.33
2023-07-12T22:10:14.236Z,1.52
2023-07-12T22:12:41.033Z,1.60
2023-07-12T22:15:08.415Z,1.20
2023-07-12T22:17:35.040Z,1.30
2023-07-12T22:20:01.887Z,1.40
2023-07-12T22:22:28.649Z,1.20
2023-07-12T22:24:55.425Z,1.33
2023-07-12T22:27:22.468Z,1.10
2023-07-12T22:29:49.365Z,1.27
2023-07-12T22:32:16.187Z,1.30
2023-07-12T22:34:43.286Z,1.10
2023-07-12T22:37:09.918Z,1.30
2023-07-12T22:39:36.532Z,1.30
2023-07-12T22:42:03.481Z,1.58
2023-07-12T22:44:30.022Z,1.40
2023-07-12T22:46:56.812Z,1.30
2023-07-12T22:49:23.521Z,1.30
2023-07-12T22:51:50.678Z,1.38
2023-07-12T22:54:17.433Z,1.38
2023-07-12T22:56:50.230Z,1.40
2023-07-12T22:59:17.410Z,1.63
2023-07-12T23:01:45.482Z,1.40
2023-07-12T23:04:12.246Z,1.30
2023-07-12T23:06:39.976Z,1.33
2023-07-12T23:09:08.479Z,1.38
2023-07-12T23:11:35.069Z,1.40
2023-07-12T23:14:03.540Z,1.40
2023-07-12T23:16:30.823Z,1.27
2023-07-12T23:18:57.469Z,1.27
2023-07-12T23:21:24.418Z,1.67
2023-07-12T23:23:52.283Z,1.65
2023-07-12T23:26:19.916Z,1.10
2023-07-12T23:28:47.001Z,1.30
2023-07-12T23:31:14.027Z,1.17
2023-07-12T23:33:41.244Z,1.30
2023-07-12T23:36:11.466Z,1.35
2023-07-12T23:38:38.226Z,1.40
2023-07-12T23:41:05.014Z,1.23
2023-07-12T23:43:34.546Z,1.48
2023-07-12T23:46:04.361Z,1.48
2023-07-12T23:48:31.956Z,2.22
2023-07-12T23:50:58.824Z,1.52
2023-07-12T23:53:25.603Z,2.28
2023-07-12T23:55:52.292Z,2.00
2023-07-12T23:58:20.581Z,1.30
